Terminal Aerodrome Forecast
Issued by NWS

Home | Current Version | Previous Version | Text Only | Print | Product List | Glossary Off
Versions: 1 2 3 4 5 6 7 8 9 10 11 12 13 14 15 16 17 18 19 20 21 22 23 24 25 26 27 28 29 30 31

935
FTUS43 KTOP 240520
TAFFOE
TAF
KFOE 240520Z 2406/2506 17013KT P6SM VCTS SCT100CB BKN200
     FM240700 19012KT P6SM SCT200
     FM241300 21010KT P6SM FEW040 BKN150
     FM242100 21008KT P6SM VCTS BKN040CB=

USA.gov is the U.S. government's official web portal to all federal, state and local government web resources and services.